DCA weather

Public forecast

Using degrees Fahrenheit for public forecast. Weather courtesy of forecast.io.

Current aviation weather report (METAR) for Ronald Reagan Washington National Airport

Retrieved 2020/08/10 10:52 UTC (18 minutes ago):

KDCA 101052Z 20003KT 8SM FEW012 24/23 A3007 RMK AO2 SLP184 T02440233

Aviation forecast (TAF) for Ronald Reagan Washington National Airport

Retrieved 2020/08/10 06:36 UTC (5 hours ago):

TAF KDCA 100535Z 1006/1112 20004KT P6SM FEW140 FM101000 VRB03KT P6SM SCT250 FM101900 17006KT P6SM FEW250 FM111100 18004KT P6SM SCT040